Main page
METAR-TAF:

METAR-TAF

Airports :

Venice Marco Polo Airport

Venice, Italy

latitude: 45-30N, longitude: 012-20E, elevation: 2 m

Current weather observation

The report was made 14 minutes ago, at 09:50 UTC
Wind 10 kt from the East
Temperature 19°C
Humidity 37%
Pressure 1027 hPa
Visibility 10 km or more
no clouds below 1500 m and no cumulonimbus

METAR: LIPZ 060950Z 09010KT CAVOK 19/04 Q1027 NOSIG

Time: 12:04 (10:04 UTC)

Forecast

The report was made 5 hours and 4 minutes ago, at 05:00 UTC
Forecast valid from 06 at 06 UTC to 07 at 12 UTC
Wind 10 kt from the Northeast
Visibility 10 km or more
no clouds below 1500 m and no cumulonimbus

TAF: LIPZ 060500Z 0606/0712 05010KT CAVOK

Weather observations and forecasts of more than 4000 airports (METAR and TAF reports).

The available stations are represented by yellow and red dots on the map.

Hover mouse over dot to see the name of the station.

Then click to see weather observations and forecasts.

To change the map : click on the green buttons with a black cross to zoom in, on the green button with a dash to zoom out, or on the green arrows for adjacent maps.


METAR-TAF: